Flight Track Log - Related Links

Times and Time Zones

All times are in EDT time to prevent confusion due to time zone crossing. See the N3558D flight status page for this flight to view local times or setup timezone preferences in your user account.

Time Position Orientation Groundspeed Altitude Reporting Facility
EDT Latitude Longitude Course Direction KTS MPH feet Rate Location/Type
Fri 06:23:52 PM 28.5667 -81.3333 41° Northeast 88 101 1,400  Level Orlando TRACON
Fri 06:24:52 PM 28.5833 -81.3000 60° Northeast 133 153 1,500 300 Climbing Orlando TRACON
Fri 06:25:52 PM 28.5667 -81.2667 120° Southeast 111 128 2,000 550 Climbing Orlando TRACON
Fri 06:26:52 PM 28.5833 -81.2333 60° Northeast 102 117 2,600 600 Climbing Orlando TRACON
Fri 06:27:52 PM 28.5667 -81.2000 120° Southeast 96 110 3,200 417 Climbing Orlando TRACON
Fri 06:28:47 PM 28.5667 -81.1667 90° East 99 114 3,400 365 Climbing Orlando TRACON
Fri 06:29:47 PM 28.5667 -81.1333 90° East 103 119 3,900 550 Climbing Orlando TRACON
Fri 06:30:47 PM 28.5500 -81.1167 139° Southeast 100 115 4,500 550 Climbing Orlando TRACON
Fri 06:31:47 PM 28.5500 -81.0833 90° East 92 106 5,000 500 Climbing Orlando TRACON
Fri 06:32:47 PM 28.5500 -81.0500 90° East 94 108 5,500 474 Climbing Orlando TRACON
Fri 06:33:41 PM 28.5500 -81.0333 90° East 97 112 5,900 474 Climbing Orlando TRACON
Fri 06:34:41 PM 28.5333 -81.0167 139° Southeast 90 104 6,400 450 Climbing Orlando TRACON
Fri 06:35:41 PM 28.5000 -81.0000 156° South 90 104 6,800 450 Climbing Orlando TRACON
Fri 06:36:41 PM 28.4833 -81.0000 180° South 86 99 7,300 333 Climbing Orlando TRACON
Fri 06:37:47 PM 28.4500 -80.9833 156° South 108 124 7,500 50 Climbing Orlando TRACON
Fri 06:38:41 PM 28.4167 -80.9833 180° South 124 143 7,400 -53 Descending Orlando TRACON
Fri 06:39:41 PM 28.3833 -80.9667 156° South 125 144 7,400  Level Orlando TRACON
Fri 06:40:42 PM 28.3500 -80.9667 180° South 132 152 7,400  Level Orlando TRACON
Fri 06:41:42 PM 28.3167 -80.9500 156° South 133 153 7,400  Level Orlando TRACON
Fri 06:42:42 PM 28.2833 -80.9333 156° South 134 154 7,400  Level Orlando TRACON
Fri 06:43:12 PM 28.2681 -80.9253 155° Southeast 130 150 7,400  Level Miami Center
Fri 06:44:12 PM 28.2353 -80.9006 146° Southeast 135 155 7,400  Level Miami Center
Fri 06:45:12 PM 28.2044 -80.8853 156° South 134 154 7,400  Level Miami Center
Fri 06:46:12 PM 28.1714 -80.8769 167° South 129 148 7,400  Level Miami Center
Fri 06:47:12 PM 28.1322 -80.8614 161° South 124 143 7,400  Level Miami Center
Fri 06:48:12 PM 28.0992 -80.8439 155° Southeast 129 148 7,400  Level Miami Center
Fri 06:49:12 PM 28.0703 -80.8311 159° South 129 148 7,400  Level Miami Center
Fri 06:50:12 PM 28.0308 -80.8250 172° South 122 140 7,400  Level Miami Center
Fri 06:51:12 PM 27.9958 -80.8144 165° South 122 140 7,400  Level Miami Center
Fri 06:52:12 PM 27.9669 -80.8014 158° South 127 146 7,400  Level Miami Center
Fri 06:53:12 PM 27.9317 -80.7933 169° South 127 146 7,400  Level Miami Center
Fri 06:54:12 PM 27.8925 -80.7731 155° Southeast 127 146 7,400  Level Miami Center
Fri 06:55:12 PM 27.8597 -80.7556 155° Southeast 132 152 7,400  Level Miami Center
Fri 06:56:12 PM 27.8267 -80.7428 161° South 132 152 7,400  Level Miami Center
Fri 06:57:12 PM 27.7956 -80.7322 163° South 125 144 7,400  Level Miami Center
Fri 06:58:12 PM 27.7603 -80.7239 168° South 125 144 7,400  Level Miami Center
Fri 06:59:12 PM 27.7208 -80.7156 169° South 130 150 7,400  Level Miami Center
Fri 07:00:12 PM 27.6836 -80.7025 163° South 130 150 7,400  Level Miami Center
Fri 07:01:12 PM 27.6503 -80.6992 175° South 136 157 7,400  Level Miami Center
Fri 07:02:12 PM 27.6150 -80.6886 165° South 136 157 7,400  Level Miami Center
Fri 07:03:12 PM 27.5758 -80.6733 161° South 136 157 7,400  Level Miami Center
Fri 07:04:12 PM 27.5408 -80.6556 156° South 136 157 7,400  Level Miami Center
Fri 07:05:12 PM 27.5081 -80.6358 152° Southeast 141 162 7,400  Level Miami Center
Fri 07:06:12 PM 27.4769 -80.6186 154° Southeast 141 162 7,400 -50 Level Miami Center
Fri 07:07:12 PM 27.4417 -80.6103 168° South 136 157 7,300  Descending Miami Center
Fri 07:08:12 PM 27.4025 -80.5972 164° South 136 157 7,400  Climbing Miami Center
Fri 07:09:12 PM 27.3653 -80.5844 163° South 136 157 7,300  Descending Miami Center
Fri 07:10:12 PM 27.3303 -80.5647 153° Southeast 136 157 7,400 50 Climbing Miami Center
Fri 07:11:12 PM 27.3036 -80.5428 144° Southeast 136 157 7,400  Level Miami Center
Fri 07:12:12 PM 27.2750 -80.5161 140° Southeast 141 162 7,400 50 Level Miami Center
Fri 07:13:12 PM 27.2447 -80.4825 135° Southeast 141 162 7,500  Climbing Miami Center
Fri 07:14:12 PM 27.2075 -80.4672 160° South 133 153 7,400 -50 Descending Miami Center
Fri 07:15:12 PM 27.1700 -80.4567 166° South 133 153 7,400  Level Miami Center
Fri 07:16:12 PM 27.1389 -80.4464 164° South 133 153 7,400 -152 Level Miami Center
Fri 07:18:00 PM 27.0788 -80.4287 162° South  Level Estimated
Fri 07:25:00 PM 26.8362 -80.3947 161° South  Level FlightAware Approximate
Fri 07:26:00 PM 26.8035 -80.3824 161° South  Level FlightAware Approximate
Fri 07:27:00 PM 26.7708 -80.3701 161° South  Level FlightAware Approximate
Fri 07:28:00 PM 26.7380 -80.3579 161° South  Level FlightAware Approximate
Fri 07:29:00 PM 26.7053 -80.3456 161° South  Level FlightAware Approximate
Fri 07:29:02 PM 26.6447 -80.3314 160° South 144 166 5,300  Level Miami Center
Fri 07:30:00 PM 26.6726 -80.3334 162° South  Level FlightAware Approximate
Fri 07:30:03 PM 26.6053 -80.3233 170° South 138 159 4,900  Level Miami Center
Fri 07:31:00 PM 26.6399 -80.3212 162° South  Level FlightAware Approximate
Fri 07:31:05 PM 26.5681 -80.3106 163° South 139 160 4,500  Level Miami Center
Fri 07:32:00 PM 26.6072 -80.3089 162° South  Level FlightAware Approximate
Fri 07:32:06 PM 26.5286 -80.2956 161° South 145 167 4,000  Level Miami Center
Fri 07:33:00 PM 26.5740 -80.3000 180° South  Level FlightAware Approximate
Fri 07:33:13 PM 26.4892 -80.2872 169° South 135 155 3,600  Level Miami Center
Fri 07:34:00 PM 26.5401 -80.2961 160° South  Level FlightAware Approximate
Fri 07:34:08 PM 26.4519 -80.2769 166° South 135 155 3,400  Level Miami Center
Fri 07:35:10 PM 26.4144 -80.2667 166° South 139 160 2,900 -295 Descending Miami Center
Fri 07:36:10 PM 26.3750 -80.2586 170° South 137 158 2,800 -188 Descending Miami Center
Fri 07:37:18 PM 26.3397 -80.2461 162° South 129 148 2,500 -341 Descending Miami Center
Fri 07:38:13 PM 26.3067 -80.2289 155° Southeast 134 154 2,100 -466 Descending Miami Center
Fri 07:39:14 PM 26.2692 -80.2300 182° South 135 155 1,600 -414 Descending Miami Center
Fri 07:40:09 PM 26.2400 -80.2317 183° South 119 137 1,300 -246 Descending Miami Center
Fri 07:41:16 PM 26.2064 -80.2353 186° South 106 122 1,100 -281 Descending Miami Center
Fri 07:42:17 PM 26.1900 -80.2233 147° Southeast 70 81 700 -393 Descending Miami Center
Fri 07:43:18 PM 26.1947 -80.2025 76° East 69 79 300 -393 Descending Miami Center
Fri 07:45:00 PM 26.1833 -80.1667 90° East  Level FlightAware Approximate
Fri 07:52:00 PM 26.1973 -80.1707 90° East  Level Estimated

Login

Don't have an account? Register now (free) for customized features, flight alerts, and more!